createdAt,value
2023-02-15T00:00:10.072Z,19.30
2023-02-15T00:01:10.072Z,19.29
2023-02-15T00:02:09.170Z,19.30
2023-02-15T00:03:10.155Z,19.31
2023-02-15T00:04:10.055Z,19.30
2023-02-15T00:05:09.041Z,19.31
2023-02-15T00:06:10.035Z,19.29
2023-02-15T00:07:10.028Z,19.27
2023-02-15T00:08:10.028Z,19.30
2023-02-15T00:09:10.342Z,19.27
2023-02-15T00:10:10.024Z,19.30
2023-02-15T00:11:09.056Z,19.30
2023-02-15T00:12:08.989Z,19.29
2023-02-15T00:13:09.973Z,19.30
2023-02-15T00:14:09.976Z,19.29
2023-02-15T00:15:09.986Z,19.30
2023-02-15T00:16:08.997Z,19.29
2023-02-15T00:17:09.963Z,19.30
2023-02-15T00:18:09.942Z,19.27
2023-02-15T00:19:08.974Z,19.27
2023-02-15T00:20:09.923Z,19.26
2023-02-15T00:21:08.927Z,19.27
2023-02-15T00:22:08.917Z,19.27
2023-02-15T00:23:09.900Z,19.29
2023-02-15T00:24:09.930Z,19.27
2023-02-15T00:25:09.888Z,19.27
2023-02-15T00:26:08.897Z,19.27
2023-02-15T00:27:08.881Z,19.29
2023-02-15T00:28:08.862Z,19.27
2023-02-15T00:29:09.875Z,19.24
2023-02-15T00:30:09.922Z,19.24
2023-02-15T00:31:09.999Z,19.27
2023-02-15T00:32:09.857Z,19.26
2023-02-15T00:33:08.838Z,19.27
2023-02-15T00:34:09.845Z,19.27
2023-02-15T00:35:09.853Z,19.24
2023-02-15T00:36:09.816Z,19.23
2023-02-15T00:37:09.835Z,19.26
2023-02-15T00:38:09.817Z,19.24
2023-02-15T00:39:09.834Z,19.24
2023-02-15T00:40:09.826Z,19.24
2023-02-15T00:41:09.832Z,19.24
2023-02-15T00:42:08.838Z,19.23
2023-02-15T00:43:08.867Z,19.24
2023-02-15T00:44:09.864Z,19.23
2023-02-15T00:45:08.845Z,19.24
2023-02-15T00:46:09.931Z,19.21
2023-02-15T00:47:08.848Z,19.26
2023-02-15T00:48:09.846Z,19.26
2023-02-15T00:49:09.900Z,19.23
2023-02-15T00:50:09.864Z,19.23
2023-02-15T00:51:08.886Z,19.21
2023-02-15T00:52:09.878Z,19.26
2023-02-15T00:53:09.874Z,19.20
2023-02-15T00:54:08.878Z,19.23
2023-02-15T00:55:09.882Z,19.23
2023-02-15T00:56:09.880Z,19.23
2023-02-15T00:57:08.895Z,19.26
2023-02-15T00:58:08.912Z,19.20
2023-02-15T00:59:08.892Z,19.21
2023-02-15T01:00:09.891Z,19.23
2023-02-15T01:01:09.948Z,19.20
2023-02-15T01:02:09.908Z,19.20
2023-02-15T01:03:09.915Z,19.23
2023-02-15T01:04:09.993Z,19.21
2023-02-15T01:05:09.942Z,19.23
2023-02-15T01:06:08.955Z,19.20
2023-02-15T01:07:08.976Z,19.21
2023-02-15T01:08:09.974Z,19.19
2023-02-15T01:09:09.971Z,19.21
2023-02-15T01:10:09.987Z,19.20
2023-02-15T01:11:10.057Z,19.20
2023-02-15T01:12:08.996Z,19.21
2023-02-15T01:13:10.010Z,19.20
2023-02-15T01:14:10.013Z,19.19
2023-02-15T01:15:10.045Z,19.19
2023-02-15T01:16:10.100Z,19.19
2023-02-15T01:17:10.054Z,19.21
2023-02-15T01:18:09.046Z,19.19
2023-02-15T01:19:09.058Z,19.19
2023-02-15T01:20:10.066Z,19.21
2023-02-15T01:21:09.077Z,19.20
2023-02-15T01:22:10.075Z,19.17
2023-02-15T01:23:09.115Z,19.19
2023-02-15T01:24:09.087Z,19.20
2023-02-15T01:25:10.129Z,19.19
2023-02-15T01:26:10.112Z,19.19
2023-02-15T01:27:09.154Z,19.17
2023-02-15T01:28:09.151Z,19.17
2023-02-15T01:29:10.152Z,19.17
2023-02-15T01:30:10.277Z,19.17
2023-02-15T01:31:10.258Z,19.19
2023-02-15T01:32:10.337Z,19.16
2023-02-15T01:33:10.207Z,19.19
2023-02-15T01:34:10.208Z,19.17
2023-02-15T01:35:10.235Z,19.16
2023-02-15T01:36:09.275Z,19.16
2023-02-15T01:37:10.259Z,19.16
2023-02-15T01:38:10.273Z,19.17
2023-02-15T01:39:10.312Z,19.13
2023-02-15T01:40:10.311Z,19.16
2023-02-15T01:41:10.316Z,19.16
2023-02-15T01:42:10.337Z,19.16
2023-02-15T01:43:10.322Z,19.17
2023-02-15T01:44:10.333Z,19.16
2023-02-15T01:45:10.363Z,19.17
2023-02-15T01:46:09.465Z,19.14
2023-02-15T01:47:10.378Z,19.14
2023-02-15T01:48:10.386Z,19.17
2023-02-15T01:49:09.379Z,19.16
2023-02-15T01:50:10.412Z,19.14
2023-02-15T01:51:10.390Z,19.14
2023-02-15T01:52:10.400Z,19.16
2023-02-15T01:53:10.452Z,19.16
2023-02-15T01:54:10.470Z,19.14
2023-02-15T01:55:09.520Z,19.16
2023-02-15T01:56:09.445Z,19.14
2023-02-15T01:57:09.479Z,19.16
2023-02-15T01:58:09.479Z,19.14
2023-02-15T01:59:10.508Z,19.14
2023-02-15T02:00:10.541Z,19.13
2023-02-15T02:01:10.565Z,19.14
2023-02-15T02:02:09.547Z,19.13
2023-02-15T02:03:10.543Z,19.14
2023-02-15T02:04:10.580Z,19.12
2023-02-15T02:05:09.595Z,19.13
2023-02-15T02:06:09.613Z,19.12
2023-02-15T02:07:10.616Z,19.13
2023-02-15T02:08:10.648Z,19.12
2023-02-15T02:09:10.670Z,19.12
2023-02-15T02:10:10.672Z,19.10
2023-02-15T02:11:10.716Z,19.13
2023-02-15T02:12:10.691Z,19.13
2023-02-15T02:13:09.704Z,19.13
2023-02-15T02:14:10.738Z,19.13
2023-02-15T02:15:10.737Z,19.12
2023-02-15T02:16:09.792Z,19.10
2023-02-15T02:17:09.746Z,19.13
2023-02-15T02:18:09.765Z,19.12
2023-02-15T02:19:10.782Z,19.12
2023-02-15T02:20:10.790Z,19.09
2023-02-15T02:21:10.816Z,19.12
2023-02-15T02:22:10.811Z,19.10
2023-02-15T02:23:09.860Z,19.10
2023-02-15T02:24:10.856Z,19.10
2023-02-15T02:25:09.866Z,19.10
2023-02-15T02:26:10.888Z,19.10
2023-02-15T02:27:10.911Z,19.10
2023-02-15T02:28:09.907Z,19.10
2023-02-15T02:29:10.918Z,19.09
2023-02-15T02:30:10.996Z,19.09
2023-02-15T02:31:10.122Z,19.09
2023-02-15T02:32:10.958Z,19.10
2023-02-15T02:33:10.974Z,19.09
2023-02-15T02:34:10.987Z,19.09
2023-02-15T02:35:11.001Z,19.09
2023-02-15T02:36:11.021Z,19.07
2023-02-15T02:37:11.030Z,19.09
2023-02-15T02:38:10.039Z,19.07
2023-02-15T02:39:11.069Z,19.06
2023-02-15T02:40:11.071Z,19.10
2023-02-15T02:41:11.116Z,19.09
2023-02-15T02:42:11.103Z,19.07
2023-02-15T02:43:10.159Z,19.09
2023-02-15T02:44:11.154Z,19.07
2023-02-15T02:45:10.138Z,19.06
2023-02-15T02:46:11.223Z,19.09
2023-02-15T02:47:11.190Z,19.06
2023-02-15T02:48:11.192Z,19.06
2023-02-15T02:49:11.204Z,19.05
2023-02-15T02:50:11.242Z,19.07
2023-02-15T02:51:10.219Z,19.10
2023-02-15T02:52:11.229Z,19.06
2023-02-15T02:53:11.254Z,19.07
2023-02-15T02:54:11.267Z,19.05
2023-02-15T02:55:11.279Z,19.06
2023-02-15T02:56:10.279Z,19.07
2023-02-15T02:57:10.377Z,19.06
2023-02-15T02:58:10.323Z,19.06
2023-02-15T02:59:11.360Z,19.03
2023-02-15T03:00:10.399Z,19.05
2023-02-15T03:01:11.352Z,19.03
2023-02-15T03:02:11.377Z,19.05
2023-02-15T03:03:10.453Z,19.02
2023-02-15T03:04:11.422Z,19.03
2023-02-15T03:05:11.435Z,19.03
2023-02-15T03:06:11.449Z,19.05
2023-02-15T03:07:10.495Z,19.05
2023-02-15T03:08:11.483Z,19.03
2023-02-15T03:09:11.525Z,19.03
2023-02-15T03:10:10.535Z,19.03
2023-02-15T03:11:11.552Z,19.05
2023-02-15T03:12:11.559Z,19.05
2023-02-15T03:13:10.577Z,19.02
2023-02-15T03:14:11.610Z,19.06
2023-02-15T03:15:10.639Z,19.02
2023-02-15T03:16:10.780Z,19.03
2023-02-15T03:17:11.676Z,19.02
2023-02-15T03:18:11.692Z,19.02
2023-02-15T03:19:10.721Z,19.01
2023-02-15T03:20:11.738Z,19.01
2023-02-15T03:21:11.754Z,19.02
2023-02-15T03:22:11.767Z,19.03
2023-02-15T03:23:11.804Z,18.99
2023-02-15T03:24:11.815Z,18.99
2023-02-15T03:25:11.846Z,19.02
2023-02-15T03:26:11.854Z,19.02
2023-02-15T03:27:11.879Z,19.01
2023-02-15T03:28:11.891Z,19.02
2023-02-15T03:29:11.941Z,19.01
2023-02-15T03:30:11.015Z,19.02
2023-02-15T03:31:12.138Z,19.01
2023-02-15T03:32:12.072Z,19.01
2023-02-15T03:33:12.001Z,19.01
2023-02-15T03:34:12.012Z,19.01
2023-02-15T03:35:11.058Z,18.99
2023-02-15T03:36:12.099Z,19.01
2023-02-15T03:37:12.107Z,19.02
2023-02-15T03:38:12.118Z,19.01
2023-02-15T03:39:12.140Z,19.01
2023-02-15T03:40:11.169Z,18.99
2023-02-15T03:41:12.180Z,18.99
2023-02-15T03:42:12.217Z,18.99
2023-02-15T03:43:11.221Z,18.98
2023-02-15T03:44:12.243Z,18.98
2023-02-15T03:45:11.269Z,18.96
2023-02-15T03:46:12.334Z,18.99
2023-02-15T03:47:11.353Z,19.01
2023-02-15T03:48:11.354Z,18.96
2023-02-15T03:49:12.428Z,18.99
2023-02-15T03:50:12.405Z,18.96
2023-02-15T03:51:12.424Z,18.96
2023-02-15T03:52:12.480Z,18.99
2023-02-15T03:53:12.482Z,18.98
2023-02-15T03:54:12.543Z,18.96
2023-02-15T03:55:11.518Z,18.98
2023-02-15T03:56:11.549Z,18.96
2023-02-15T03:57:12.573Z,18.96
2023-02-15T03:58:12.594Z,18.95
2023-02-15T03:59:12.606Z,18.96
2023-02-15T04:00:12.629Z,18.95
2023-02-15T04:01:11.766Z,18.96
2023-02-15T04:02:12.691Z,18.96
2023-02-15T04:03:12.780Z,18.98
2023-02-15T04:04:11.726Z,18.93
2023-02-15T04:05:12.751Z,18.96
2023-02-15T04:06:12.785Z,18.95
2023-02-15T04:07:12.816Z,18.93
2023-02-15T04:08:12.838Z,18.95
2023-02-15T04:09:12.853Z,18.93
2023-02-15T04:10:12.882Z,18.95
2023-02-15T04:11:11.912Z,18.95
2023-02-15T04:12:12.935Z,18.95
2023-02-15T04:13:11.947Z,18.93
2023-02-15T04:14:12.980Z,18.96
2023-02-15T04:15:13.013Z,18.92
2023-02-15T04:16:13.162Z,18.95
2023-02-15T04:17:12.081Z,18.95
2023-02-15T04:18:13.091Z,18.92
2023-02-15T04:19:13.142Z,18.93
2023-02-15T04:20:13.145Z,18.95
2023-02-15T04:21:12.183Z,18.92
2023-02-15T04:22:13.198Z,18.95
2023-02-15T04:23:13.214Z,18.95
2023-02-15T04:24:12.253Z,18.92
2023-02-15T04:25:12.276Z,18.92
2023-02-15T04:26:12.314Z,18.91
2023-02-15T04:27:12.318Z,18.92
2023-02-15T04:28:13.353Z,18.92
2023-02-15T04:29:13.372Z,18.91
2023-02-15T04:30:13.464Z,18.91
2023-02-15T04:31:13.578Z,18.93
2023-02-15T04:32:13.560Z,18.91
2023-02-15T04:33:12.509Z,18.89
2023-02-15T04:34:12.516Z,18.89
2023-02-15T04:35:13.577Z,18.89
2023-02-15T04:36:12.570Z,18.89
2023-02-15T04:37:13.607Z,18.89
2023-02-15T04:38:13.635Z,18.91
2023-02-15T04:39:12.653Z,18.89
2023-02-15T04:40:13.689Z,18.89
2023-02-15T04:41:13.710Z,18.92
2023-02-15T04:42:12.953Z,18.91
2023-02-15T04:43:12.754Z,18.92
2023-02-15T04:44:13.794Z,18.89
2023-02-15T04:45:12.815Z,18.88
2023-02-15T04:46:13.896Z,18.89
2023-02-15T04:47:12.865Z,18.88
2023-02-15T04:48:13.882Z,18.88
2023-02-15T04:49:12.920Z,18.88
2023-02-15T04:50:13.941Z,18.85
2023-02-15T04:51:13.987Z,18.86
2023-02-15T04:52:14.013Z,18.88
2023-02-15T04:53:14.032Z,18.89
2023-02-15T04:54:14.056Z,18.86
2023-02-15T04:55:14.091Z,18.88
2023-02-15T04:56:14.113Z,18.89
2023-02-15T04:57:13.135Z,18.89
2023-02-15T04:58:13.175Z,18.88
2023-02-15T04:59:14.180Z,18.86
2023-02-15T05:00:14.218Z,18.85
2023-02-15T05:01:14.289Z,18.88
2023-02-15T05:02:13.286Z,18.88
2023-02-15T05:03:14.296Z,18.84
2023-02-15T05:04:13.390Z,18.86
2023-02-15T05:05:14.366Z,18.86
2023-02-15T05:06:13.378Z,18.89
2023-02-15T05:07:13.440Z,18.84
2023-02-15T05:08:14.434Z,18.85
2023-02-15T05:09:14.465Z,18.84
2023-02-15T05:10:14.504Z,18.86
2023-02-15T05:11:13.534Z,18.84
2023-02-15T05:12:13.545Z,18.85
2023-02-15T05:13:14.578Z,18.86
2023-02-15T05:14:13.609Z,18.85
2023-02-15T05:15:13.650Z,18.84
2023-02-15T05:16:13.681Z,18.88
2023-02-15T05:17:13.693Z,18.84
2023-02-15T05:18:13.733Z,18.85
2023-02-15T05:19:14.758Z,18.85
2023-02-15T05:20:14.781Z,18.82
2023-02-15T05:21:14.817Z,18.82
2023-02-15T05:22:14.825Z,18.82
2023-02-15T05:23:14.896Z,18.85
2023-02-15T05:24:13.890Z,18.85
2023-02-15T05:25:14.918Z,18.84
2023-02-15T05:26:14.967Z,18.84
2023-02-15T05:27:14.981Z,18.85
2023-02-15T05:28:14.004Z,18.84
2023-02-15T05:29:14.035Z,18.85
2023-02-15T05:30:15.212Z,18.86
2023-02-15T05:31:15.403Z,18.82
2023-02-15T05:32:15.333Z,18.85
2023-02-15T05:33:15.164Z,18.84
2023-02-15T05:34:15.190Z,18.84
2023-02-15T05:35:14.236Z,18.82
2023-02-15T05:36:15.247Z,18.82
2023-02-15T05:37:15.285Z,18.84
2023-02-15T05:38:15.327Z,18.82
2023-02-15T05:39:14.369Z,18.82
2023-02-15T05:40:14.386Z,18.80
2023-02-15T05:41:15.413Z,18.80
2023-02-15T05:42:15.441Z,18.82
2023-02-15T05:43:15.484Z,18.82
2023-02-15T05:44:14.481Z,18.82
2023-02-15T05:45:15.514Z,18.82
2023-02-15T05:46:14.648Z,18.80
2023-02-15T05:47:15.570Z,18.82
2023-02-15T05:48:15.642Z,18.80
2023-02-15T05:49:15.635Z,18.79
2023-02-15T05:50:15.655Z,18.80
2023-02-15T05:51:15.681Z,18.80
2023-02-15T05:52:14.708Z,18.82
2023-02-15T05:53:14.754Z,18.80
2023-02-15T05:54:15.786Z,18.82
2023-02-15T05:55:14.845Z,18.79
2023-02-15T05:56:15.848Z,18.78
2023-02-15T05:57:15.877Z,18.80
2023-02-15T05:58:15.896Z,18.79
2023-02-15T05:59:14.933Z,18.79
2023-02-15T06:00:15.969Z,18.79
2023-02-15T06:01:14.994Z,18.80
2023-02-15T06:02:15.090Z,18.79
2023-02-15T06:03:15.108Z,18.78
2023-02-15T06:04:16.095Z,18.80
2023-02-15T06:05:15.134Z,18.78
2023-02-15T06:06:15.141Z,18.79
2023-02-15T06:07:16.183Z,18.79
2023-02-15T06:08:15.203Z,18.79
2023-02-15T06:09:16.276Z,18.78
2023-02-15T06:10:15.269Z,18.78
2023-02-15T06:11:16.330Z,18.78
2023-02-15T06:12:16.335Z,18.79
2023-02-15T06:13:15.388Z,18.79
2023-02-15T06:14:16.409Z,18.76
2023-02-15T06:15:16.476Z,18.78
2023-02-15T06:16:15.507Z,18.78
2023-02-15T06:17:15.493Z,18.78
2023-02-15T06:18:16.518Z,18.76
2023-02-15T06:19:16.547Z,18.75
2023-02-15T06:20:16.576Z,18.76
2023-02-15T06:21:15.599Z,18.75
2023-02-15T06:22:16.630Z,18.75
2023-02-15T06:23:16.661Z,18.76
2023-02-15T06:24:16.681Z,18.76
2023-02-15T06:25:16.702Z,18.75
2023-02-15T06:26:16.735Z,18.75
2023-02-15T06:27:16.801Z,18.75
2023-02-15T06:28:16.806Z,18.75
2023-02-15T06:29:15.838Z,18.76
2023-02-15T06:30:16.960Z,18.78
2023-02-15T06:31:17.012Z,18.75
2023-02-15T06:32:15.922Z,18.75
2023-02-15T06:33:15.957Z,18.75
2023-02-15T06:34:16.003Z,18.75
2023-02-15T06:35:17.002Z,18.76
2023-02-15T06:36:17.050Z,18.74
2023-02-15T06:37:17.077Z,18.74
2023-02-15T06:38:17.124Z,18.76
2023-02-15T06:39:16.157Z,18.75
2023-02-15T06:40:17.194Z,18.75
2023-02-15T06:41:17.194Z,18.72
2023-02-15T06:42:17.227Z,18.74
2023-02-15T06:43:16.268Z,18.75
2023-02-15T06:44:17.326Z,18.74
2023-02-15T06:45:17.322Z,18.74
2023-02-15T06:46:17.441Z,18.75
2023-02-15T06:47:17.370Z,18.75
2023-02-15T06:48:17.412Z,18.74
2023-02-15T06:49:17.449Z,18.74
2023-02-15T06:50:16.460Z,18.72
2023-02-15T06:51:17.485Z,18.74
2023-02-15T06:52:17.518Z,18.72
2023-02-15T06:53:17.572Z,18.72
2023-02-15T06:54:17.958Z,18.72
2023-02-15T06:55:17.638Z,18.75
2023-02-15T06:56:16.668Z,18.74
2023-02-15T06:57:17.852Z,18.75
2023-02-15T06:58:17.732Z,18.72
2023-02-15T06:59:17.789Z,18.74
2023-02-15T07:00:16.811Z,18.75
2023-02-15T07:01:17.856Z,18.72
2023-02-15T07:02:17.854Z,18.71
2023-02-15T07:03:17.911Z,18.71
2023-02-15T07:04:16.915Z,18.71
2023-02-15T07:05:16.959Z,18.72
2023-02-15T07:06:17.968Z,18.72
2023-02-15T07:07:17.012Z,18.72
2023-02-15T07:08:17.080Z,18.72
2023-02-15T07:09:17.106Z,18.71
2023-02-15T07:10:18.122Z,18.71
2023-02-15T07:11:18.141Z,18.69
2023-02-15T07:12:18.162Z,18.72
2023-02-15T07:13:18.215Z,18.68
2023-02-15T07:14:18.235Z,18.72
2023-02-15T07:15:18.294Z,18.71
2023-02-15T07:16:18.340Z,18.69
2023-02-15T07:17:35.033Z,18.71
2023-02-15T07:18:18.313Z,18.69
2023-02-15T07:19:18.306Z,18.69
2023-02-15T07:20:18.332Z,18.69
2023-02-15T07:21:18.297Z,18.69
2023-02-15T07:22:18.279Z,18.69
2023-02-15T07:23:17.281Z,18.72
2023-02-15T07:24:17.272Z,18.68
2023-02-15T07:25:18.349Z,18.69
2023-02-15T07:26:18.324Z,18.69
2023-02-15T07:27:18.246Z,18.69
2023-02-15T07:28:17.244Z,18.69
2023-02-15T07:29:18.231Z,18.68
2023-02-15T07:30:18.398Z,18.69
2023-02-15T07:31:17.369Z,18.71
2023-02-15T07:32:18.289Z,18.74
2023-02-15T07:33:17.223Z,18.72
2023-02-15T07:34:18.202Z,18.72
2023-02-15T07:35:18.258Z,18.74
2023-02-15T07:36:18.263Z,18.74
2023-02-15T07:37:17.294Z,18.74
2023-02-15T07:38:18.322Z,18.74
2023-02-15T07:39:18.362Z,18.74
2023-02-15T07:40:18.402Z,18.72
2023-02-15T07:41:18.430Z,18.72
2023-02-15T07:42:17.444Z,18.74
2023-02-15T07:43:18.485Z,18.75
2023-02-15T07:44:18.512Z,18.74
2023-02-15T07:45:18.542Z,18.74
2023-02-15T07:46:18.610Z,18.75
2023-02-15T07:47:18.631Z,18.75
2023-02-15T07:48:17.620Z,18.74
2023-02-15T07:49:18.660Z,18.76
2023-02-15T07:50:18.685Z,18.75
2023-02-15T07:51:18.740Z,18.75
2023-02-15T07:52:17.753Z,18.76
2023-02-15T07:53:18.779Z,18.76
2023-02-15T07:54:17.806Z,18.75
2023-02-15T07:55:18.852Z,18.75
2023-02-15T07:56:18.865Z,18.76
2023-02-15T07:57:18.911Z,18.76
2023-02-15T07:58:18.928Z,18.75
2023-02-15T07:59:18.964Z,18.76
2023-02-15T08:00:19.013Z,18.76
2023-02-15T08:01:18.030Z,18.76
2023-02-15T08:02:19.057Z,18.76
2023-02-15T08:03:18.275Z,18.78
2023-02-15T08:04:18.111Z,18.80
2023-02-15T08:05:18.151Z,18.78
2023-02-15T08:06:19.174Z,18.82
2023-02-15T08:07:18.191Z,18.82
2023-02-15T08:08:19.229Z,18.82
2023-02-15T08:09:19.243Z,18.82
2023-02-15T08:10:18.273Z,18.82
2023-02-15T08:11:19.305Z,18.84
2023-02-15T08:12:18.321Z,18.86
2023-02-15T08:13:19.359Z,18.88
2023-02-15T08:14:18.382Z,18.86
2023-02-15T08:15:19.465Z,18.85
2023-02-15T08:16:19.502Z,18.86
2023-02-15T08:17:18.448Z,18.89
2023-02-15T08:18:19.477Z,18.88
2023-02-15T08:19:19.526Z,18.89
2023-02-15T08:20:18.520Z,18.89
2023-02-15T08:21:19.539Z,18.91
2023-02-15T08:22:18.575Z,18.91
2023-02-15T08:23:19.606Z,18.91
2023-02-15T08:24:19.596Z,18.93
2023-02-15T08:25:18.628Z,18.95
2023-02-15T08:26:18.630Z,18.92
2023-02-15T08:27:18.654Z,18.92
2023-02-15T08:28:19.694Z,18.95
2023-02-15T08:29:19.705Z,18.99
2023-02-15T08:30:19.834Z,18.95
2023-02-15T08:31:19.939Z,19.02
2023-02-15T08:32:18.780Z,18.99
2023-02-15T08:33:18.760Z,18.98
2023-02-15T08:34:19.788Z,19.02
2023-02-15T08:35:19.850Z,19.02
2023-02-15T08:36:19.827Z,19.03
2023-02-15T08:37:19.825Z,19.03
2023-02-15T08:38:19.841Z,19.05
2023-02-15T08:39:18.869Z,19.06
2023-02-15T08:40:18.890Z,19.06
2023-02-15T08:41:19.899Z,19.07
2023-02-15T08:42:18.910Z,19.07
2023-02-15T08:43:19.908Z,19.09
2023-02-15T08:44:18.913Z,19.09
2023-02-15T08:45:19.939Z,19.12
2023-02-15T08:46:19.955Z,19.07
2023-02-15T08:47:19.942Z,19.12
2023-02-15T08:48:18.937Z,19.12
2023-02-15T08:49:18.961Z,19.10
2023-02-15T08:50:19.949Z,19.14
2023-02-15T08:51:20.055Z,19.16
2023-02-15T08:52:19.962Z,19.14
2023-02-15T08:53:19.976Z,19.16
2023-02-15T08:54:20.042Z,19.20
2023-02-15T08:55:19.985Z,19.19
2023-02-15T08:56:19.986Z,19.20
2023-02-15T08:57:19.980Z,19.21
2023-02-15T08:58:18.991Z,19.19
2023-02-15T08:59:19.986Z,19.21
2023-02-15T09:00:18.988Z,19.21
2023-02-15T09:01:20.036Z,19.23
2023-02-15T09:02:20.030Z,19.23
2023-02-15T09:03:18.985Z,19.23
2023-02-15T09:04:19.002Z,19.23
2023-02-15T09:05:19.996Z,19.26
2023-02-15T09:06:19.997Z,19.26
2023-02-15T09:07:19.012Z,19.27
2023-02-15T09:08:19.988Z,19.26
2023-02-15T09:09:18.986Z,19.29
2023-02-15T09:10:19.968Z,19.27
2023-02-15T09:11:19.971Z,19.29
2023-02-15T09:12:19.972Z,19.27
2023-02-15T09:13:19.974Z,19.26
2023-02-15T09:14:19.960Z,19.27
2023-02-15T09:15:18.959Z,19.31
2023-02-15T09:16:19.503Z,19.30
2023-02-15T09:17:19.963Z,19.30
2023-02-15T09:18:19.999Z,19.33
2023-02-15T09:19:19.958Z,19.31
2023-02-15T09:20:19.979Z,19.31
2023-02-15T09:21:18.976Z,19.31
2023-02-15T09:22:19.944Z,19.33
2023-02-15T09:23:26.779Z,19.34
2023-02-15T09:24:19.947Z,19.33
2023-02-15T09:25:18.932Z,19.34
2023-02-15T09:26:18.950Z,19.35
2023-02-15T09:27:18.934Z,19.37
2023-02-15T09:28:18.905Z,19.37
2023-02-15T09:29:19.920Z,19.40
2023-02-15T09:30:18.937Z,19.37
2023-02-15T09:31:20.081Z,19.40
2023-02-15T09:32:18.945Z,19.40
2023-02-15T09:33:18.870Z,19.38
2023-02-15T09:34:19.920Z,19.38
2023-02-15T09:35:18.861Z,19.41
2023-02-15T09:36:18.867Z,19.41
2023-02-15T09:37:19.870Z,19.41
2023-02-15T09:38:19.851Z,19.42
2023-02-15T09:39:19.878Z,19.44
2023-02-15T09:40:19.833Z,19.46
2023-02-15T09:41:18.842Z,19.42
2023-02-15T09:42:18.826Z,19.46
2023-02-15T09:43:19.813Z,19.44
2023-02-15T09:44:18.802Z,19.46
2023-02-15T09:45:19.799Z,19.47
2023-02-15T09:46:18.895Z,19.48
2023-02-15T09:47:18.810Z,19.48
2023-02-15T09:48:18.780Z,19.47
2023-02-15T09:49:19.786Z,19.48
2023-02-15T09:50:19.789Z,19.51
2023-02-15T09:51:18.766Z,19.53
2023-02-15T09:52:18.761Z,19.54
2023-02-15T09:53:19.756Z,19.54
2023-02-15T09:54:19.757Z,19.54
2023-02-15T09:55:18.847Z,19.53
2023-02-15T09:56:20.757Z,19.54
2023-02-15T09:57:18.920Z,19.55
2023-02-15T09:58:19.000Z,19.57
2023-02-15T09:59:20.056Z,19.58
2023-02-15T10:00:20.142Z,19.57
2023-02-15T10:01:19.221Z,19.58
2023-02-15T10:02:19.249Z,19.57
2023-02-15T10:03:20.299Z,19.58
2023-02-15T10:04:20.458Z,19.61
2023-02-15T10:05:19.424Z,19.60
2023-02-15T10:06:19.498Z,19.62
2023-02-15T10:07:20.568Z,19.61
2023-02-15T10:08:20.609Z,19.62
2023-02-15T10:09:20.670Z,19.62
2023-02-15T10:10:20.715Z,19.64
2023-02-15T10:11:19.810Z,19.65
2023-02-15T10:12:19.842Z,19.66
2023-02-15T10:13:20.897Z,19.65
2023-02-15T10:14:20.942Z,19.64
2023-02-15T10:15:21.031Z,19.65
2023-02-15T10:16:21.077Z,19.66
2023-02-15T10:17:21.123Z,19.66
2023-02-15T10:18:21.180Z,19.68
2023-02-15T10:19:21.235Z,19.68
2023-02-15T10:20:21.372Z,19.68
2023-02-15T10:21:21.423Z,19.68
2023-02-15T10:22:21.402Z,19.65
2023-02-15T10:23:20.486Z,19.69
2023-02-15T10:24:21.526Z,19.66
2023-02-15T10:25:21.572Z,19.68
2023-02-15T10:26:21.689Z,19.69
2023-02-15T10:27:21.681Z,19.69
2023-02-15T10:28:21.746Z,19.71
2023-02-15T10:29:20.776Z,19.69
2023-02-15T10:30:21.977Z,19.68
2023-02-15T10:31:22.088Z,19.69
2023-02-15T10:32:21.008Z,19.71
2023-02-15T10:33:21.986Z,19.71
2023-02-15T10:34:22.037Z,19.71
2023-02-15T10:35:21.090Z,19.71
2023-02-15T10:36:21.144Z,19.69
2023-02-15T10:37:21.210Z,19.71
2023-02-15T10:38:22.262Z,19.74
2023-02-15T10:39:22.311Z,19.72
2023-02-15T10:40:22.351Z,19.74
2023-02-15T10:41:22.409Z,19.72
2023-02-15T10:42:21.516Z,19.71
2023-02-15T10:43:21.625Z,19.72
2023-02-15T10:44:21.579Z,19.74
2023-02-15T10:45:22.634Z,19.69
2023-02-15T10:46:21.800Z,19.74
2023-02-15T10:47:21.731Z,19.75
2023-02-15T10:48:22.827Z,19.74
2023-02-15T10:49:22.833Z,19.75
2023-02-15T10:50:21.887Z,19.74
2023-02-15T10:51:22.922Z,19.74
2023-02-15T10:52:24.360Z,19.75
2023-02-15T10:53:22.090Z,19.75
2023-02-15T10:54:23.127Z,19.75
2023-02-15T10:55:22.169Z,19.76
2023-02-15T10:56:23.213Z,19.74
2023-02-15T10:57:23.268Z,19.78
2023-02-15T10:58:22.372Z,19.75
2023-02-15T10:59:22.371Z,19.76
2023-02-15T11:00:23.405Z,19.75
2023-02-15T11:01:22.545Z,19.76
2023-02-15T11:02:22.478Z,19.76
2023-02-15T11:03:23.518Z,19.78
2023-02-15T11:04:22.572Z,19.75
2023-02-15T11:05:23.686Z,19.75
2023-02-15T11:06:22.639Z,19.78
2023-02-15T11:07:23.673Z,19.76
2023-02-15T11:08:23.729Z,19.76
2023-02-15T11:09:23.760Z,19.78
2023-02-15T11:10:23.795Z,19.79
2023-02-15T11:11:23.837Z,19.78
2023-02-15T11:12:23.887Z,19.79
2023-02-15T11:13:22.915Z,19.79
2023-02-15T11:14:23.987Z,19.79
2023-02-15T11:15:22.995Z,19.78
2023-02-15T11:16:23.080Z,19.79
2023-02-15T11:17:23.056Z,19.79
2023-02-15T11:18:24.095Z,19.78
2023-02-15T11:19:24.149Z,19.79
2023-02-15T11:20:24.175Z,19.81
2023-02-15T11:21:23.225Z,19.79
2023-02-15T11:22:24.243Z,19.81
2023-02-15T11:23:24.271Z,19.81
2023-02-15T11:24:23.327Z,19.79
2023-02-15T11:25:24.346Z,19.79
2023-02-15T11:26:24.394Z,19.81
2023-02-15T11:27:24.505Z,19.79
2023-02-15T11:28:24.443Z,19.81
2023-02-15T11:29:24.543Z,19.81
2023-02-15T11:30:23.719Z,19.82
2023-02-15T11:31:24.674Z,19.82
2023-02-15T11:32:24.628Z,19.84
2023-02-15T11:33:23.648Z,19.82
2023-02-15T11:34:24.676Z,19.82
2023-02-15T11:35:24.702Z,19.81
2023-02-15T11:36:24.754Z,19.84
2023-02-15T11:37:23.776Z,19.82
2023-02-15T11:38:24.834Z,19.85
2023-02-15T11:39:24.880Z,19.84
2023-02-15T11:40:24.053Z,19.84
2023-02-15T11:41:24.166Z,19.85
2023-02-15T11:42:25.113Z,19.85
2023-02-15T11:43:24.021Z,19.82
2023-02-15T11:44:24.277Z,19.84
2023-02-15T11:45:24.204Z,19.86
2023-02-15T11:46:25.473Z,19.86
2023-02-15T11:47:25.261Z,19.85
2023-02-15T11:48:25.520Z,19.85
2023-02-15T11:49:26.314Z,19.84
2023-02-15T11:50:25.605Z,19.85
2023-02-15T11:51:25.406Z,19.85
2023-02-15T11:52:25.597Z,19.84
2023-02-15T11:53:25.602Z,19.86
2023-02-15T11:54:25.639Z,19.85
2023-02-15T11:55:25.537Z,19.86
2023-02-15T11:56:24.574Z,19.88
2023-02-15T11:57:24.616Z,19.86
2023-02-15T11:58:25.695Z,19.89
2023-02-15T11:59:25.716Z,19.86
2023-02-15T12:00:25.686Z,19.91
2023-02-15T12:01:25.724Z,19.88
2023-02-15T12:02:25.845Z,19.89
2023-02-15T12:03:25.775Z,19.89
2023-02-15T12:04:25.806Z,19.86
2023-02-15T12:05:25.869Z,19.91
2023-02-15T12:06:24.875Z,19.88
2023-02-15T12:07:25.899Z,19.88
2023-02-15T12:08:25.916Z,19.88
2023-02-15T12:09:25.942Z,19.91
2023-02-15T12:10:25.984Z,19.92
2023-02-15T12:11:25.008Z,19.91
2023-02-15T12:12:26.021Z,19.91
2023-02-15T12:13:25.054Z,19.91
2023-02-15T12:14:25.081Z,19.92
2023-02-15T12:15:26.108Z,19.93
2023-02-15T12:16:26.288Z,19.91
2023-02-15T12:17:26.168Z,19.92
2023-02-15T12:18:26.319Z,19.91
2023-02-15T12:19:26.209Z,19.91
2023-02-15T12:20:26.248Z,19.91
2023-02-15T12:21:27.720Z,19.92
2023-02-15T12:22:26.304Z,19.93
2023-02-15T12:23:26.315Z,19.93
2023-02-15T12:24:26.332Z,19.92
2023-02-15T12:25:26.376Z,19.93
2023-02-15T12:26:25.380Z,19.93
2023-02-15T12:27:26.422Z,19.92
2023-02-15T12:28:26.443Z,19.93
2023-02-15T12:29:26.466Z,19.93
2023-02-15T12:30:26.553Z,19.95
2023-02-15T12:31:25.606Z,19.92
2023-02-15T12:32:26.629Z,19.93
2023-02-15T12:33:26.575Z,19.93
2023-02-15T12:34:26.728Z,19.93
2023-02-15T12:35:26.628Z,19.95
2023-02-15T12:36:26.644Z,19.92
2023-02-15T12:37:26.685Z,19.92
2023-02-15T12:38:25.692Z,19.92
2023-02-15T12:39:26.740Z,19.96
2023-02-15T12:40:26.760Z,19.95
2023-02-15T12:41:26.823Z,19.93
2023-02-15T12:42:26.800Z,19.92
2023-02-15T12:43:26.832Z,19.96
2023-02-15T12:44:26.861Z,19.92
2023-02-15T12:45:25.923Z,19.95
2023-02-15T12:46:25.924Z,19.93
2023-02-15T12:47:29.626Z,19.91
2023-02-15T12:48:25.926Z,19.96
2023-02-15T12:49:25.919Z,19.96
2023-02-15T12:50:27.063Z,19.95
2023-02-15T12:51:27.179Z,19.95
2023-02-15T12:52:25.954Z,19.95